Time;durP1;ratioP1;P1;durP2;ratioP2;P2;SDS_P1;SDS_P2;PMS_P1;PMS_P2;Temp;Humidity;BMP_temperature;BMP_pressure;BME280_temperature;BME280_humidity;BME280_pressure;Samples;Min_cycle;Max_cycle;Signal;HPM_P1;HPM_P2
2022/11/02 00:01:25;;;;;;;7.67;1.53;;;11.70;99.90;;;;;;6199332;28;20053;-84
2022/11/02 00:04:27;;;;;;;5.85;1.65;;;11.70;99.90;;;;;;6199180;28;20130;-84
2022/11/02 00:07:28;;;;;;;7.28;1.45;;;11.80;99.90;;;;;;6200938;28;20046;-83
2022/11/02 00:10:30;;;;;;;11.73;1.85;;;11.80;99.90;;;;;;6211580;28;20049;-83
2022/11/02 00:13:33;;;;;;;8.85;0.88;;;11.80;99.90;;;;;;6227698;28;20090;-84
2022/11/02 00:16:38;;;;;;;4.95;1.23;;;11.90;99.90;;;;;;6214182;28;20046;-85
2022/11/02 00:19:39;;;;;;;5.43;1.42;;;11.90;99.90;;;;;;6205932;28;20084;-85
2022/11/02 00:22:42;;;;;;;6.43;0.85;;;11.90;99.90;;;;;;6208352;28;20054;-85
2022/11/02 00:25:48;;;;;;;3.10;1.20;;;12.00;99.90;;;;;;6208380;28;20054;-86
2022/11/02 00:28:52;;;;;;;5.80;1.55;;;11.90;99.90;;;;;;6207552;28;20043;-85
2022/11/02 00:31:53;;;;;;;4.30;0.93;;;12.00;99.90;;;;;;6207951;28;20058;-85
2022/11/02 00:34:55;;;;;;;6.10;1.25;;;11.90;99.90;;;;;;6207919;28;20423;-84
2022/11/02 00:37:57;;;;;;;11.68;1.42;;;11.90;99.90;;;;;;6206572;28;20043;-84
2022/11/02 00:40:59;;;;;;;5.45;0.80;;;11.90;99.90;;;;;;6207581;28;20051;-83
2022/11/02 00:44:02;;;;;;;5.68;1.35;;;11.90;99.90;;;;;;6207007;28;20056;-84
2022/11/02 00:47:04;;;;;;;8.77;0.80;;;11.90;99.90;;;;;;6207135;28;20046;-85
2022/11/02 00:50:07;;;;;;;4.88;1.40;;;12.00;99.90;;;;;;6206152;28;20073;-85
2022/11/02 00:53:08;;;;;;;3.58;1.25;;;12.00;99.90;;;;;;6206076;28;20042;-83
2022/11/02 00:56:10;;;;;;;4.07;0.73;;;12.10;99.90;;;;;;6205923;28;20503;-84
2022/11/02 00:59:14;;;;;;;7.68;1.33;;;12.10;99.90;;;;;;6207952;28;20057;-83
2022/11/02 01:02:16;;;;;;;7.00;0.90;;;12.10;99.90;;;;;;6211832;28;20070;-84
2022/11/02 01:05:17;;;;;;;9.52;1.25;;;12.20;99.90;;;;;;6208285;28;20057;-85
2022/11/02 01:08:19;;;;;;;8.57;1.83;;;12.20;99.90;;;;;;6205946;28;20046;-84
2022/11/02 01:11:23;;;;;;;4.85;1.05;;;12.30;99.90;;;;;;6206864;28;20499;-85
2022/11/02 01:14:27;;;;;;;7.30;1.23;;;12.40;99.90;;;;;;6205753;28;20046;-84
2022/11/02 01:17:28;;;;;;;9.68;1.35;;;12.40;99.90;;;;;;6205169;28;20046;-85
2022/11/02 01:20:30;;;;;;;6.75;1.58;;;12.40;99.90;;;;;;6205135;28;20570;-83
2022/11/02 01:23:33;;;;;;;7.57;1.10;;;12.50;99.90;;;;;;6207096;28;20492;-84
2022/11/02 01:26:34;;;;;;;15.85;2.28;;;12.60;99.90;;;;;;6206810;28;20058;-85
2022/11/02 01:29:37;;;;;;;7.50;0.75;;;12.60;99.90;;;;;;6206644;28;20503;-84
2022/11/02 01:32:39;;;;;;;2.47;0.88;;;12.80;99.90;;;;;;6206923;28;20053;-84
2022/11/02 01:35:41;;;;;;;12.13;2.70;;;12.80;99.90;;;;;;6208733;28;20452;-83
2022/11/02 01:38:43;;;;;;;13.48;1.08;;;12.90;99.90;;;;;;6208319;28;20050;-84
2022/11/02 01:41:45;;;;;;;5.68;0.75;;;12.90;99.90;;;;;;6188177;28;20047;-84
2022/11/02 01:44:48;;;;;;;2.05;0.80;;;12.90;99.90;;;;;;6183454;28;20046;-84
2022/11/02 01:47:50;;;;;;;5.78;0.95;;;12.90;99.90;;;;;;6179795;28;20047;-83
2022/11/02 01:50:52;;;;;;;8.27;1.52;;;13.00;99.90;;;;;;6180593;28;20057;-82
2022/11/02 01:53:56;;;;;;;11.93;1.23;;;13.00;99.90;;;;;;6180735;28;20078;-84
2022/11/02 01:57:04;;;;;;;6.07;1.23;;;13.10;99.90;;;;;;6181536;28;20047;-84
2022/11/02 02:00:10;;;;;;;8.35;3.25;;;13.10;99.90;;;;;;6180208;28;20051;-83
2022/11/02 02:03:17;;;;;;;5.35;0.93;;;13.20;99.90;;;;;;6180603;28;20100;-84
2022/11/02 02:06:19;;;;;;;2.55;0.52;;;13.20;99.90;;;;;;6180841;28;20074;-83
2022/11/02 02:09:21;;;;;;;7.60;1.23;;;13.30;99.90;;;;;;6179207;28;20053;-82
2022/11/02 02:12:24;;;;;;;1.55;0.82;;;13.40;99.90;;;;;;6179654;28;20046;-82
2022/11/02 02:15:39;;;;;;;1.15;0.40;;;13.40;99.90;;;;;;6179810;28;20047;-84
2022/11/02 02:18:46;;;;;;;5.57;0.98;;;13.40;99.90;;;;;;6178997;28;20051;-83
2022/11/02 02:22:12;;;;;;;9.82;0.82;;;13.50;99.90;;;;;;6179950;28;20061;-83
2022/11/02 02:25:26;;;;;;;1.02;0.20;;;13.50;99.90;;;;;;6224067;23;20056;-83
2022/11/02 02:28:36;;;;;;;7.88;1.13;;;13.60;99.90;;;;;;6207528;28;20054;-83
2022/11/02 02:31:44;;;;;;;7.72;1.52;;;13.60;99.90;;;;;;6208781;28;20074;-84
2022/11/02 02:34:52;;;;;;;5.18;0.70;;;13.70;99.90;;;;;;6205213;28;20061;-83
2022/11/02 02:37:59;;;;;;;3.55;0.90;;;13.70;99.90;;;;;;6204573;28;20038;-82
2022/11/02 02:41:10;;;;;;;9.90;1.30;;;13.80;99.90;;;;;;6204495;28;20503;-83
2022/11/02 02:44:20;;;;;;;9.15;1.00;;;13.80;99.90;;;;;;6203991;28;20046;-83
2022/11/02 02:47:27;;;;;;;1.27;0.30;;;13.80;99.90;;;;;;6203809;28;20047;-83
2022/11/02 02:50:32;;;;;;;5.45;1.00;;;13.80;99.90;;;;;;6203974;28;20050;-83
2022/11/02 02:53:38;;;;;;;3.70;1.35;;;13.80;99.90;;;;;;6204032;28;20047;-83
2022/11/02 02:56:44;;;;;;;1.02;0.73;;;13.80;99.90;;;;;;6203981;28;20050;-83
2022/11/02 02:59:48;;;;;;;5.05;1.05;;;13.90;99.90;;;;;;6203752;28;20054;-83
2022/11/02 03:03:00;;;;;;;2.60;0.75;;;13.80;99.90;;;;;;6203237;28;20491;-83
2022/11/02 03:06:07;;;;;;;2.65;0.70;;;13.70;99.90;;;;;;6203900;28;20061;-83
2022/11/02 03:09:19;;;;;;;8.23;0.80;;;13.70;99.90;;;;;;6204047;28;20474;-82
2022/11/02 03:12:29;;;;;;;4.00;0.80;;;13.70;99.90;;;;;;6204877;28;20046;-82
2022/11/02 03:15:40;;;;;;;5.38;0.82;;;13.70;99.90;;;;;;6203750;28;20050;-83
2022/11/02 03:18:49;;;;;;;6.80;1.20;;;13.60;99.90;;;;;;6203660;28;20054;-83
2022/11/02 03:21:59;;;;;;;3.75;0.88;;;13.50;99.90;;;;;;6204216;28;20388;-83
2022/11/02 03:25:08;;;;;;;9.18;1.25;;;13.50;99.90;;;;;;6204986;28;20053;-83
2022/11/02 03:28:14;;;;;;;5.50;0.88;;;13.50;99.90;;;;;;6203497;28;20043;-83
2022/11/02 03:31:31;;;;;;;7.45;1.25;;;13.40;99.90;;;;;;6204160;28;20050;-82
2022/11/02 03:34:39;;;;;;;6.18;0.82;;;13.30;99.90;;;;;;6202730;28;20504;-83
2022/11/02 03:37:46;;;;;;;9.23;1.42;;;13.20;99.90;;;;;;6203138;28;20042;-83
2022/11/02 03:40:50;;;;;;;4.68;0.90;;;13.20;99.90;;;;;;6203403;28;20057;-83
2022/11/02 03:44:00;;;;;;;3.25;1.45;;;13.10;99.90;;;;;;6201082;28;20054;-81
2022/11/02 03:47:03;;;;;;;3.10;0.70;;;13.00;99.90;;;;;;6200395;28;20050;-81
2022/11/02 03:50:08;;;;;;;3.10;0.88;;;13.00;99.90;;;;;;6199609;28;20062;-81
2022/11/02 03:53:16;;;;;;;7.88;0.77;;;12.90;99.90;;;;;;6200372;28;20061;-81
2022/11/02 03:56:21;;;;;;;6.68;1.02;;;12.90;99.90;;;;;;6203312;28;20054;-81
2022/11/02 03:59:23;;;;;;;5.05;1.02;;;12.80;99.90;;;;;;6204838;28;20042;-81
2022/11/02 04:02:26;;;;;;;12.70;1.40;;;12.80;99.90;;;;;;6207719;28;20057;-81
2022/11/02 04:05:29;;;;;;;2.95;0.63;;;12.70;99.90;;;;;;6208830;28;20046;-82
2022/11/02 04:08:36;;;;;;;6.55;0.80;;;12.70;99.90;;;;;;6209274;28;20070;-81
2022/11/02 04:14:57;;;;;;;3.30;0.57;;;12.70;99.90;;;;;;6208765;28;20140;-81
2022/11/02 04:21:19;;;;;;;5.53;0.65;;;12.70;99.90;;;;;;6208728;28;20050;-81
2022/11/02 04:27:40;;;;;;;3.17;0.65;;;12.70;99.90;;;;;;6208711;28;20046;-82
2022/11/02 04:30:42;;;;;;;5.50;0.82;;;12.80;99.90;;;;;;6207512;28;20057;-81
2022/11/02 04:33:45;;;;;;;9.23;0.77;;;12.70;99.90;;;;;;6207859;28;20065;-82
2022/11/02 04:36:46;;;;;;;4.20;0.50;;;12.70;99.90;;;;;;6207415;28;20050;-81
2022/11/02 04:39:47;;;;;;;5.07;0.95;;;12.80;99.90;;;;;;6208087;28;20047;-81
2022/11/02 04:42:49;;;;;;;1.67;0.65;;;12.90;99.90;;;;;;6208340;28;20510;-81
2022/11/02 04:45:50;;;;;;;7.07;1.52;;;13.10;99.90;;;;;;6207097;28;20050;-81
2022/11/02 04:48:54;;;;;;;5.43;1.88;;;13.30;99.90;;;;;;6206639;28;20057;-81
2022/11/02 04:51:56;;;;;;;1.33;0.60;;;13.40;99.90;;;;;;6207575;28;20054;-81
2022/11/02 04:54:57;;;;;;;4.78;0.85;;;13.60;99.90;;;;;;6208209;28;20046;-84
2022/11/02 04:57:59;;;;;;;10.63;3.30;;;13.80;99.90;;;;;;6207281;28;20047;-82
2022/11/02 05:01:05;;;;;;;5.15;1.20;;;13.80;99.90;;;;;;6206886;28;20042;-82
2022/11/02 05:04:10;;;;;;;9.07;1.58;;;13.90;99.90;;;;;;6206501;28;20061;-81
2022/11/02 05:07:12;;;;;;;4.25;0.93;;;14.00;99.90;;;;;;6206946;28;20061;-81
2022/11/02 05:10:13;;;;;;;5.45;0.80;;;14.00;99.90;;;;;;6206510;28;20085;-81
2022/11/02 05:13:15;;;;;;;9.80;1.63;;;14.10;99.90;;;;;;6205412;28;20543;-82
2022/11/02 05:16:18;;;;;;;4.30;1.23;;;14.10;99.90;;;;;;6207281;28;20046;-82
2022/11/02 05:19:21;;;;;;;6.63;0.82;;;14.20;99.90;;;;;;6207165;28;20047;-82
2022/11/02 05:22:22;;;;;;;7.88;1.15;;;14.20;99.90;;;;;;6206762;28;20053;-82
2022/11/02 05:25:24;;;;;;;11.88;1.23;;;14.30;99.90;;;;;;6206467;28;20047;-82
2022/11/02 05:28:27;;;;;;;1.48;0.75;;;14.30;99.90;;;;;;6206071;28;20046;-82
2022/11/02 05:31:28;;;;;;;12.93;1.85;;;14.30;99.90;;;;;;6206972;28;20440;-82
2022/11/02 05:34:31;;;;;;;4.68;1.08;;;14.30;99.90;;;;;;6206943;28;20518;-82
2022/11/02 05:37:33;;;;;;;4.30;1.00;;;14.20;99.90;;;;;;6205800;28;20058;-82
2022/11/02 05:40:36;;;;;;;7.18;1.25;;;14.10;99.90;;;;;;6205778;28;20053;-82
2022/11/02 05:43:38;;;;;;;8.23;1.17;;;14.10;99.90;;;;;;6206065;28;20580;-81
2022/11/02 05:46:40;;;;;;;2.60;0.80;;;14.10;99.90;;;;;;6206413;28;20057;-82
2022/11/02 05:49:43;;;;;;;4.88;1.00;;;13.90;99.90;;;;;;6205253;28;20046;-82
2022/11/02 05:52:44;;;;;;;4.35;1.02;;;13.90;99.90;;;;;;6206747;28;20046;-82
2022/11/02 05:55:46;;;;;;;13.10;1.77;;;13.80;99.90;;;;;;6206608;28;20053;-82
2022/11/02 05:58:48;;;;;;;5.78;1.30;;;13.80;99.90;;;;;;6204798;28;20046;-82
2022/11/02 06:01:49;;;;;;;3.80;1.30;;;13.90;99.90;;;;;;6204715;28;20415;-82
2022/11/02 06:04:52;;;;;;;7.15;1.52;;;13.90;99.90;;;;;;6205282;28;20054;-82
2022/11/02 06:07:58;;;;;;;7.57;1.33;;;13.90;99.90;;;;;;6204992;28;20046;-82
2022/11/02 06:11:04;;;;;;;11.70;2.15;;;13.80;99.90;;;;;;6205175;28;20057;-82
2022/11/02 06:14:06;;;;;;;5.90;1.63;;;13.80;99.90;;;;;;6204669;28;20057;-82
2022/11/02 06:17:07;;;;;;;10.65;1.42;;;13.80;99.90;;;;;;6203715;28;20058;-81
2022/11/02 06:20:11;;;;;;;12.07;1.48;;;13.60;99.90;;;;;;6204220;28;20053;-81
2022/11/02 06:23:16;;;;;;;12.18;2.28;;;13.50;99.90;;;;;;6204503;28;20504;-82
2022/11/02 06:26:18;;;;;;;4.32;1.15;;;13.50;99.90;;;;;;6215110;28;20066;-82
2022/11/02 06:29:20;;;;;;;10.48;1.80;;;13.40;99.90;;;;;;6219299;28;20042;-81
2022/11/02 06:32:21;;;;;;;17.98;3.10;;;13.50;99.90;;;;;;6213159;28;20042;-82
2022/11/02 06:35:24;;;;;;;5.97;1.35;;;13.60;99.90;;;;;;6207717;28;20054;-82
2022/11/02 06:38:26;;;;;;;11.23;1.77;;;13.60;99.90;;;;;;6206178;28;20038;-83
2022/11/02 06:41:28;;;;;;;10.68;2.80;;;13.60;99.90;;;;;;6206681;28;20094;-82
2022/11/02 06:44:29;;;;;;;8.88;1.40;;;13.50;99.90;;;;;;6206451;28;20054;-82
2022/11/02 06:47:32;;;;;;;3.72;1.40;;;13.50;99.90;;;;;;6206308;28;20050;-81
2022/11/02 06:50:35;;;;;;;6.18;0.90;;;13.40;99.90;;;;;;6205598;28;20050;-82
2022/11/02 06:53:36;;;;;;;4.00;1.50;;;13.40;99.90;;;;;;6204760;28;20050;-82
2022/11/02 06:56:38;;;;;;;5.30;1.33;;;13.30;99.90;;;;;;6205232;28;20061;-82
2022/11/02 06:59:40;;;;;;;8.18;1.35;;;13.30;99.90;;;;;;6204758;28;20042;-82
2022/11/02 07:02:41;;;;;;;9.05;1.45;;;13.30;99.90;;;;;;6205329;28;20090;-82
2022/11/02 07:05:49;;;;;;;7.05;2.53;;;13.30;99.90;;;;;;6204909;28;20050;-82
2022/11/02 07:08:51;;;;;;;9.27;1.95;;;13.40;99.90;;;;;;6204192;28;20046;-82
2022/11/02 07:11:53;;;;;;;3.88;1.05;;;13.50;99.90;;;;;;6204247;28;20050;-82
2022/11/02 07:14:54;;;;;;;10.45;1.75;;;13.60;99.90;;;;;;6204715;28;20057;-81
2022/11/02 07:17:56;;;;;;;8.68;1.88;;;13.80;99.90;;;;;;6205008;28;20050;-82
2022/11/02 07:21:00;;;;;;;5.32;1.40;;;14.10;99.90;;;;;;6209503;28;20046;-82
2022/11/02 07:24:02;;;;;;;8.00;1.48;;;14.30;99.90;;;;;;6207948;28;20050;-82
2022/11/02 07:27:03;;;;;;;10.23;1.35;;;14.60;99.90;;;;;;6205275;28;20058;-82
2022/11/02 07:30:07;;;;;;;5.35;1.35;;;14.70;99.90;;;;;;6205114;28;20046;-82
2022/11/02 07:33:08;;;;;;;3.05;1.42;;;14.80;99.90;;;;;;6204980;28;20420;-82
2022/11/02 07:36:12;;;;;;;5.70;1.92;;;14.80;99.90;;;;;;6205152;28;20047;-82
2022/11/02 07:39:13;;;;;;;1.85;0.85;;;14.80;99.90;;;;;;6204985;28;20046;-82
2022/11/02 07:42:15;;;;;;;6.50;1.13;;;14.80;99.90;;;;;;6176970;28;20043;-82
2022/11/02 07:45:17;;;;;;;8.02;0.98;;;14.80;99.90;;;;;;6202137;28;20081;-81
2022/11/02 07:48:18;;;;;;;4.68;1.42;;;14.90;99.90;;;;;;6216455;28;20053;-81
2022/11/02 07:51:21;;;;;;;4.32;1.05;;;14.90;99.90;;;;;;6204883;28;20057;-81
2022/11/02 07:54:23;;;;;;;11.68;1.13;;;14.90;99.90;;;;;;6195685;28;20059;-82
2022/11/02 07:57:25;;;;;;;7.50;1.17;;;15.00;99.90;;;;;;6204973;28;20053;-81
2022/11/02 08:00:28;;;;;;;4.50;0.93;;;15.00;99.90;;;;;;6205645;28;20043;-81
2022/11/02 08:03:30;;;;;;;2.72;0.93;;;15.10;99.90;;;;;;6201325;28;20053;-81
2022/11/02 08:06:34;;;;;;;9.68;1.10;;;15.10;99.90;;;;;;6223904;28;20049;-81
2022/11/02 08:09:36;;;;;;;5.75;0.95;;;15.20;99.90;;;;;;6229162;28;20042;-82
2022/11/02 08:12:38;;;;;;;10.85;1.27;;;15.20;99.90;;;;;;6230174;28;20056;-82
2022/11/02 08:15:40;;;;;;;7.50;1.27;;;15.20;99.90;;;;;;6229966;28;20050;-82
2022/11/02 08:18:42;;;;;;;8.60;1.50;;;15.30;99.90;;;;;;6228606;28;20053;-82
2022/11/02 08:21:45;;;;;;;8.25;0.88;;;15.30;99.90;;;;;;6228493;28;20061;-81
2022/11/02 08:24:47;;;;;;;10.20;1.30;;;15.40;99.90;;;;;;6225902;23;20051;-83
2022/11/02 08:27:49;;;;;;;12.07;1.42;;;15.40;99.90;;;;;;6191965;28;20054;-82
2022/11/02 08:30:50;;;;;;;8.93;1.00;;;15.50;99.90;;;;;;6201442;28;20043;-82
2022/11/02 08:33:53;;;;;;;6.00;1.08;;;15.50;99.90;;;;;;6200077;28;20054;-82
2022/11/02 08:36:57;;;;;;;4.68;1.13;;;15.70;99.90;;;;;;6200448;28;20043;-81
2022/11/02 08:39:59;;;;;;;8.10;1.02;;;15.90;99.90;;;;;;6199638;28;20042;-82
2022/11/02 08:43:02;;;;;;;4.63;1.50;;;16.20;99.90;;;;;;6204907;28;20050;-82
2022/11/02 08:46:04;;;;;;;6.18;0.82;;;16.50;99.90;;;;;;6204459;28;20050;-82
2022/11/02 08:49:06;;;;;;;8.05;1.35;;;16.80;99.90;;;;;;6205998;28;20088;-86
2022/11/02 08:52:09;;;;;;;9.00;1.73;;;17.10;99.50;;;;;;6206356;28;20050;-82
2022/11/02 08:55:11;;;;;;;6.95;1.65;;;17.40;99.00;;;;;;6185261;28;20553;-84
2022/11/02 08:58:12;;;;;;;6.30;0.70;;;17.50;98.60;;;;;;6195275;28;20546;-83
2022/11/02 09:01:14;;;;;;;5.85;1.30;;;17.60;98.40;;;;;;6203233;28;20529;-83
2022/11/02 09:04:16;;;;;;;2.88;0.88;;;17.60;98.10;;;;;;6204541;28;20046;-85
2022/11/02 09:07:19;;;;;;;7.50;0.93;;;17.70;97.50;;;;;;6204447;28;20085;-83
2022/11/02 09:10:21;;;;;;;8.00;0.80;;;17.70;97.50;;;;;;6205448;28;20061;-84
2022/11/02 09:13:24;;;;;;;9.32;2.15;;;17.70;97.40;;;;;;6205591;28;20042;-85
2022/11/02 09:16:26;;;;;;;6.05;0.90;;;17.60;97.20;;;;;;6205061;28;20046;-83
2022/11/02 09:19:27;;;;;;;8.15;1.17;;;17.60;97.20;;;;;;6204297;28;20189;-82
2022/11/02 09:22:30;;;;;;;4.15;0.98;;;17.70;96.90;;;;;;6206101;28;20154;-84
2022/11/02 09:25:32;;;;;;;8.80;1.55;;;17.80;96.70;;;;;;6194524;28;20066;-83
2022/11/02 09:28:34;;;;;;;9.38;1.55;;;17.80;96.40;;;;;;6206720;28;20507;-82
2022/11/02 09:31:35;;;;;;;5.30;0.95;;;17.90;96.30;;;;;;6209038;28;20050;-84
2022/11/02 09:34:37;;;;;;;6.00;0.95;;;18.00;96.00;;;;;;6209024;28;20050;-84
2022/11/02 09:37:44;;;;;;;11.15;0.85;;;18.30;95.70;;;;;;6210401;28;20042;-83
2022/11/02 09:40:51;;;;;;;8.93;2.95;;;18.60;95.20;;;;;;6208441;28;20046;-85
2022/11/02 09:44:01;;;;;;;2.77;0.67;;;18.80;94.90;;;;;;6208907;28;20053;-83
2022/11/02 09:47:03;;;;;;;5.22;0.95;;;19.30;94.30;;;;;;6207953;28;20306;-85
2022/11/02 09:50:06;;;;;;;3.92;0.90;;;19.30;93.90;;;;;;6207047;28;20130;-84
2022/11/02 09:53:14;;;;;;;3.88;0.85;;;19.40;93.70;;;;;;6207367;28;20050;-87
2022/11/02 09:56:19;;;;;;;9.63;1.10;;;19.30;93.00;;;;;;6203118;28;20042;-84
2022/11/02 09:59:23;;;;;;;9.35;1.25;;;19.10;92.70;;;;;;6182586;28;20049;-84
2022/11/02 10:02:47;;;;;;;10.40;1.10;;;18.80;92.60;;;;;;6180938;28;20485;-83
2022/11/02 10:05:56;;;;;;;7.18;1.83;;;18.70;92.80;;;;;;6180636;28;20677;-84
2022/11/02 10:09:06;;;;;;;4.43;0.55;;;18.70;92.40;;;;;;6182588;28;20049;-84
2022/11/02 10:12:14;;;;;;;9.95;1.00;;;18.90;92.10;;;;;;6184641;28;20479;-84
2022/11/02 10:15:19;;;;;;;5.43;0.88;;;18.90;91.80;;;;;;6185253;28;20109;-84
2022/11/02 10:18:25;;;;;;;6.63;1.10;;;19.30;91.80;;;;;;6181996;28;20047;-83
2022/11/02 10:21:31;;;;;;;9.05;1.23;;;19.70;91.20;;;;;;6181901;28;20081;-84
2022/11/02 10:24:41;;;;;;;7.70;1.30;;;20.40;90.40;;;;;;6180303;28;20039;-83
2022/11/02 10:27:47;;;;;;;7.00;1.00;;;20.90;88.70;;;;;;6182338;28;20054;-83
2022/11/02 10:30:50;;;;;;;6.50;1.45;;;21.30;87.00;;;;;;6183134;28;20058;-83
2022/11/02 10:33:53;;;;;;;11.82;1.00;;;21.30;84.40;;;;;;6192092;28;20043;-84
2022/11/02 10:37:10;;;;;;;5.28;0.90;;;21.20;84.40;;;;;;6199222;28;20130;-84
2022/11/02 10:40:21;;;;;;;13.77;3.45;;;21.20;83.30;;;;;;6189354;28;20049;-84
2022/11/02 10:43:36;;;;;;;9.98;1.48;;;21.00;82.40;;;;;;6183379;28;20047;-85
2022/11/02 10:46:55;;;;;;;9.50;1.33;;;21.00;82.20;;;;;;6182965;28;20407;-84
2022/11/02 10:50:17;;;;;;;6.53;1.23;;;21.10;82.40;;;;;;6181392;28;20661;-84
2022/11/02 10:53:21;;;;;;;10.52;1.38;;;21.50;82.30;;;;;;6180334;28;20062;-84
2022/11/02 10:56:29;;;;;;;7.47;0.80;;;22.10;80.70;;;;;;6180757;28;20389;-84
2022/11/02 10:59:31;;;;;;;7.32;1.40;;;22.30;77.50;;;;;;6179574;28;20086;-85
2022/11/02 11:02:32;;;;;;;7.10;1.10;;;22.30;77.40;;;;;;6180519;28;20051;-84
2022/11/02 11:05:37;;;;;;;12.10;1.60;;;22.40;76.50;;;;;;6176992;28;20047;-84
2022/11/02 11:08:41;;;;;;;7.63;1.25;;;22.50;75.70;;;;;;6177585;28;20051;-85
2022/11/02 11:12:02;;;;;;;10.75;2.38;;;22.80;75.90;;;;;;6178435;28;20051;-83
2022/11/02 11:15:06;;;;;;;10.98;1.80;;;23.00;73.90;;;;;;6177989;28;20055;-83
2022/11/02 11:18:13;;;;;;;5.95;1.08;;;23.20;73.10;;;;;;6177461;28;20051;-82
2022/11/02 11:21:15;;;;;;;13.98;1.35;;;23.40;71.10;;;;;;6179420;28;20042;-83
2022/11/02 11:24:22;;;;;;;3.80;0.80;;;23.50;70.70;;;;;;6202713;28;20050;-82
2022/11/02 11:27:25;;;;;;;7.18;1.02;;;23.70;69.30;;;;;;6202334;28;20064;-82
2022/11/02 11:30:29;;;;;;;7.78;1.30;;;23.80;68.00;;;;;;6199231;28;20042;-83
2022/11/02 11:33:32;;;;;;;6.45;0.75;;;23.80;67.00;;;;;;6201898;28;20047;-82
2022/11/02 11:36:35;;;;;;;9.25;1.48;;;23.50;66.80;;;;;;6200347;28;20057;-81
2022/11/02 11:39:39;;;;;;;5.57;0.77;;;23.40;67.30;;;;;;6199575;28;20059;-82
2022/11/02 11:42:43;;;;;;;3.85;0.95;;;23.10;67.10;;;;;;6199905;28;20057;-81
2022/11/02 11:45:55;;;;;;;5.80;0.90;;;22.70;67.10;;;;;;6198908;28;20057;-81
2022/11/02 11:48:58;;;;;;;5.55;0.95;;;22.30;67.70;;;;;;6199615;28;20053;-82
2022/11/02 11:52:02;;;;;;;8.35;1.60;;;21.80;68.40;;;;;;6199182;28;20047;-81
2022/11/02 11:55:21;;;;;;;6.18;0.85;;;21.50;69.50;;;;;;6181613;28;20054;-83
2022/11/02 11:58:25;;;;;;;7.20;1.02;;;21.00;69.80;;;;;;6174257;28;20512;-82
2022/11/02 12:01:37;;;;;;;6.85;1.73;;;20.60;70.30;;;;;;6174051;28;20532;-82
2022/11/02 12:04:39;;;;;;;11.98;2.58;;;20.20;70.80;;;;;;6174649;28;20784;-83
2022/11/02 12:08:23;;;;;;;9.85;1.52;;;20.10;71.60;;;;;;6175708;28;20171;-83
2022/11/02 12:11:44;;;;;;;9.45;1.55;;;20.00;72.80;;;;;;6175185;28;20043;-83
2022/11/02 12:14:57;;;;;;;10.30;1.48;;;20.30;72.60;;;;;;6174488;28;20047;-84
2022/11/02 12:18:13;;;;;;;6.05;1.48;;;20.50;71.80;;;;;;6180141;28;20047;-85
2022/11/02 12:21:30;;;;;;;8.25;1.10;;;20.60;71.10;;;;;;6184177;28;20065;-85
2022/11/02 12:24:47;;;;;;;7.28;1.38;;;20.70;71.00;;;;;;6207363;28;20049;-83
2022/11/02 12:27:57;;;;;;;7.85;1.33;;;20.90;70.50;;;;;;6204255;28;20057;-83
2022/11/02 12:31:14;;;;;;;5.13;0.73;;;21.10;70.80;;;;;;6203402;28;20057;-83
2022/11/02 12:34:32;;;;;;;5.35;0.82;;;21.50;69.80;;;;;;6202763;28;20046;-84
2022/11/02 12:37:45;;;;;;;9.43;1.23;;;21.90;68.50;;;;;;6203425;28;20042;-83
2022/11/02 12:40:59;;;;;;;6.20;1.27;;;22.40;68.10;;;;;;6203417;28;20054;-83
2022/11/02 12:44:14;;;;;;;7.05;0.80;;;22.90;66.80;;;;;;6203495;28;20061;-83
2022/11/02 12:47:29;;;;;;;7.57;1.02;;;23.50;66.30;;;;;;6203348;28;20419;-84
2022/11/02 12:50:49;;;;;;;7.05;1.02;;;23.90;65.00;;;;;;6203440;28;20048;-86
2022/11/02 12:53:55;;;;;;;2.95;0.60;;;24.30;63.10;;;;;;6203103;28;20050;-85
2022/11/02 12:56:57;;;;;;;9.23;1.85;;;24.70;62.40;;;;;;6203676;28;20492;-83
2022/11/02 13:00:03;;;;;;;3.75;0.63;;;24.90;61.00;;;;;;6202952;28;20411;-84
2022/11/02 13:03:13;;;;;;;18.10;9.10;;;24.90;59.90;;;;;;6201611;28;20050;-84
2022/11/02 13:06:19;;;;;;;12.65;8.55;;;24.90;60.00;;;;;;6178348;28;20057;-83
2022/11/02 13:09:25;;;;;;;3.13;0.52;;;24.90;59.40;;;;;;6178464;28;20047;-82
2022/11/02 13:12:28;;;;;;;10.02;1.35;;;24.90;59.00;;;;;;6178534;28;20042;-84
2022/11/02 13:15:32;;;;;;;8.15;0.90;;;25.00;58.50;;;;;;6179093;28;20054;-83
2022/11/02 13:18:43;;;;;;;9.45;4.40;;;25.00;58.50;;;;;;6178180;28;20057;-84
2022/11/02 13:21:49;;;;;;;6.35;2.70;;;24.90;58.30;;;;;;6178629;28;20066;-84
2022/11/02 13:24:57;;;;;;;42.55;19.60;;;25.00;58.10;;;;;;6177902;28;20047;-85
2022/11/02 13:28:03;;;;;;;25.00;10.98;;;25.00;58.20;;;;;;6178223;28;20488;-86
2022/11/02 13:31:09;;;;;;;8.27;2.75;;;25.10;58.00;;;;;;6178148;28;20046;-85
2022/11/02 13:34:17;;;;;;;4.55;1.05;;;25.30;57.80;;;;;;6177772;28;20043;-82
2022/11/02 13:37:22;;;;;;;;;;;25.50;57.40;;;;;;6178634;28;20531;-84
2022/11/02 13:40:27;;;;;;;10.00;1.08;;;25.50;57.70;;;;;;6178301;28;19929;-83
2022/11/02 13:43:52;;;;;;;14.52;7.30;;;25.30;56.60;;;;;;6179053;28;20057;-87
2022/11/02 13:47:23;;;;;;;6.47;2.53;;;25.20;56.50;;;;;;6172496;28;20504;-84
2022/11/02 13:50:28;;;;;;;5.22;0.93;;;24.90;55.50;;;;;;6178187;28;20058;-84
2022/11/02 13:53:36;;;;;;;6.65;0.93;;;24.60;55.70;;;;;;6178111;28;20050;-83
2022/11/02 13:56:39;;;;;;;8.35;1.63;;;24.50;55.90;;;;;;6179236;28;20113;-86
2022/11/02 13:59:45;;;;;;;5.60;1.02;;;24.30;56.30;;;;;;6178335;28;20511;-85
2022/11/02 14:02:47;;;;;;;5.35;1.70;;;24.40;56.40;;;;;;6171294;28;20047;-84
2022/11/02 14:05:53;;;;;;;4.43;0.70;;;24.40;55.80;;;;;;6172733;28;20496;-83
2022/11/02 14:08:58;;;;;;;16.95;1.73;;;24.40;55.60;;;;;;6181633;28;20508;-82
2022/11/02 14:12:42;;;;;;;17.17;4.57;;;24.20;55.40;;;;;;6180403;28;20050;-85
2022/11/02 14:15:44;;;;;;;4.95;1.27;;;24.10;55.90;;;;;;6168574;28;20051;-84
2022/11/02 14:18:47;;;;;;;7.10;2.45;;;24.10;56.20;;;;;;6179577;28;20042;-83
2022/11/02 14:22:11;;;;;;;11.10;0.90;;;24.00;55.80;;;;;;6179189;28;20468;-83
2022/11/02 14:25:17;;;;;;;9.90;4.40;;;23.80;56.30;;;;;;6212003;23;20051;-82
2022/11/02 14:28:34;;;;;;;10.23;2.95;;;23.90;56.70;;;;;;6180425;28;20046;-81
2022/11/02 14:31:57;;;;;;;6.78;1.20;;;23.90;56.90;;;;;;6182003;28;20137;-82
2022/11/02 14:35:13;;;;;;;10.00;3.45;;;24.00;57.00;;;;;;6181662;28;20042;-82
2022/11/02 14:38:59;;;;;;;1.88;0.55;;;23.90;57.00;;;;;;6180614;28;20137;-82
2022/11/02 14:42:31;;;;;;;6.93;1.17;;;23.90;57.00;;;;;;6106276;29;20713;-82
2022/11/02 14:45:43;;;;;;;9.10;1.17;;;23.90;57.10;;;;;;6177061;28;20398;-82
2022/11/02 14:48:47;;;;;;;4.57;1.60;;;23.70;56.90;;;;;;6173246;28;20140;-82
2022/11/02 14:51:59;;;;;;;6.80;0.85;;;23.60;57.20;;;;;;6155989;28;20490;-82
2022/11/02 14:55:04;;;;;;;5.50;1.50;;;23.50;57.50;;;;;;6156599;28;20054;-81
2022/11/02 14:58:15;;;;;;;5.15;1.23;;;23.30;57.40;;;;;;6155750;29;20035;-82
2022/11/02 15:01:17;;;;;;;8.35;1.02;;;23.10;57.50;;;;;;6155721;29;20047;-81
2022/11/02 15:04:19;;;;;;;8.02;2.75;;;22.90;57.90;;;;;;6154336;28;20409;-81
2022/11/02 15:07:25;;;;;;;10.23;2.30;;;22.90;58.30;;;;;;6156085;29;20055;-82
2022/11/02 15:10:41;;;;;;;15.05;2.70;;;22.80;58.70;;;;;;6154120;28;20043;-81
2022/11/02 15:13:47;;;;;;;4.00;1.08;;;22.70;58.60;;;;;;6155580;28;20051;-82
2022/11/02 15:16:49;;;;;;;10.10;2.15;;;22.70;58.70;;;;;;6145558;28;20082;-82
2022/11/02 15:19:52;;;;;;;11.18;1.45;;;22.50;59.00;;;;;;6167528;28;20058;-82
2022/11/02 15:22:58;;;;;;;3.13;0.80;;;22.40;59.40;;;;;;6154635;28;20122;-82
2022/11/02 15:26:05;;;;;;;12.07;1.25;;;22.10;60.10;;;;;;6155141;28;20051;-82
2022/11/02 15:29:14;;;;;;;;;;;21.70;60.80;;;;;;6156469;28;20047;-83
2022/11/02 15:32:20;;;;;;;6.30;1.30;;;21.40;60.70;;;;;;6155811;28;19926;-81
2022/11/02 15:35:24;;;;;;;7.30;1.00;;;20.90;61.80;;;;;;6154504;28;20378;-81
2022/11/02 15:38:28;;;;;;;7.88;1.30;;;20.30;63.10;;;;;;6154515;28;20070;-82
2022/11/02 15:41:38;;;;;;;12.68;1.70;;;19.80;64.30;;;;;;6154996;28;20047;-82
2022/11/02 15:45:16;;;;;;;5.13;1.30;;;19.40;65.50;;;;;;6156918;28;20055;-81
2022/11/02 15:48:33;;;;;;;14.57;1.67;;;18.80;66.30;;;;;;6144409;28;20421;-81
2022/11/02 15:51:43;;;;;;;7.53;1.95;;;18.30;67.40;;;;;;6159289;28;20047;-82
2022/11/02 15:54:57;;;;;;;3.95;0.95;;;17.70;68.70;;;;;;6160212;28;20410;-81
2022/11/02 15:58:11;;;;;;;5.35;1.33;;;17.20;70.10;;;;;;6160126;28;20058;-81
2022/11/02 16:01:19;;;;;;;11.55;1.48;;;16.70;71.30;;;;;;6159976;28;20043;-82
2022/11/02 16:04:21;;;;;;;;;;;16.50;72.40;;;;;;6162450;28;20053;-83
2022/11/02 16:07:24;;;;;;;7.38;1.52;;;16.30;72.10;;;;;;6158223;28;20381;-83
2022/11/02 16:10:27;;;;;;;5.43;0.95;;;16.00;73.00;;;;;;6159284;28;20046;-81
2022/11/02 16:13:34;;;;;;;9.50;1.67;;;15.60;73.80;;;;;;6160037;28;20122;-81
2022/11/02 16:16:46;;;;;;;7.97;1.60;;;15.10;75.10;;;;;;6159761;29;20059;-81